Time;durP1;ratioP1;P1;durP2;ratioP2;P2;SDS_P1;SDS_P2;PMS_P1;PMS_P2;Temp;Humidity;BMP_temperature;BMP_pressure;BME280_temperature;BME280_humidity;BME280_pressure;Samples;Min_cycle;Max_cycle;Signal;HPM_P1;HPM_P2
2022/10/27 00:00:47;;;;;;;21.00;10.30;;;11.90;99.90;;;;;;5071350;28;21284;-61
2022/10/27 00:03:15;;;;;;;123.97;56.27;;;12.00;99.90;;;;;;5071960;28;20493;-62
2022/10/27 00:05:42;;;;;;;32.27;16.53;;;12.00;99.90;;;;;;5071540;28;20491;-61
2022/10/27 00:08:13;;;;;;;45.10;26.13;;;12.00;99.90;;;;;;5064897;28;20466;-61
2022/10/27 00:10:41;;;;;;;22.70;9.90;;;12.10;99.90;;;;;;5069800;28;20482;-62
2022/10/27 00:13:08;;;;;;;24.67;12.37;;;12.10;99.90;;;;;;5070736;28;20478;-61
2022/10/27 00:15:34;;;;;;;15.00;8.80;;;12.10;99.90;;;;;;5070241;28;20680;-62
2022/10/27 00:18:10;;;;;;;23.43;8.40;;;11.60;99.90;;;;;;5068446;28;20474;-61
2022/10/27 00:20:37;;;;;;;22.53;11.10;;;11.30;99.90;;;;;;5040869;28;20476;-62
2022/10/27 00:23:04;;;;;;;21.57;8.03;;;;;;;;;;5062676;28;20548;-61
2022/10/27 00:25:31;;;;;;;13.07;7.90;;;11.00;99.90;;;;;;5067911;28;20477;-61
2022/10/27 00:27:57;;;;;;;21.27;10.33;;;10.90;99.90;;;;;;5069817;28;20965;-62
2022/10/27 00:30:24;;;;;;;17.07;9.13;;;10.90;99.90;;;;;;5065281;28;20838;-62
2022/10/27 00:32:51;;;;;;;14.60;8.30;;;10.90;99.90;;;;;;5069705;28;20470;-62
2022/10/27 00:35:19;;;;;;;17.60;10.60;;;10.90;99.90;;;;;;5057460;28;20497;-61
2022/10/27 00:37:46;;;;;;;14.10;8.53;;;;;;;;;;5079861;28;20466;-62
2022/10/27 00:40:13;;;;;;;25.33;12.53;;;11.10;99.90;;;;;;5068167;28;20829;-61
2022/10/27 00:42:39;;;;;;;19.73;8.40;;;11.10;99.90;;;;;;5071955;28;20482;-62
2022/10/27 00:45:07;;;;;;;49.87;12.87;;;;;;;;;;5071534;28;20716;-62
2022/10/27 00:47:36;;;;;;;24.30;9.40;;;11.20;99.90;;;;;;5070323;28;20493;-61
2022/10/27 00:50:06;;;;;;;20.37;9.53;;;11.20;99.90;;;;;;5072917;28;20624;-61
2022/10/27 00:52:39;;;;;;;13.37;7.57;;;11.20;99.90;;;;;;5073837;28;20482;-62
2022/10/27 00:55:11;;;;;;;14.63;8.53;;;11.10;99.90;;;;;;5070866;28;20489;-61
2022/10/27 00:57:39;;;;;;;14.20;8.60;;;10.90;99.90;;;;;;5072203;28;20818;-62
2022/10/27 01:00:07;;;;;;;27.73;8.97;;;10.90;99.90;;;;;;5075552;28;20470;-62
2022/10/27 01:02:35;;;;;;;14.20;8.23;;;10.90;99.90;;;;;;5077327;28;20486;-63
2022/10/27 01:05:04;;;;;;;15.40;8.90;;;;;;;;;;5079201;28;20497;-62
2022/10/27 01:07:31;;;;;;;16.10;8.77;;;11.00;99.90;;;;;;5072903;28;20490;-63
2022/10/27 01:09:59;;;;;;;11.03;7.07;;;11.10;99.90;;;;;;5076225;28;20474;-61
2022/10/27 01:12:26;;;;;;;16.90;8.60;;;11.20;99.90;;;;;;5072912;28;20490;-62
2022/10/27 01:14:53;;;;;;;8.47;5.77;;;11.30;99.90;;;;;;5073299;28;20482;-61
2022/10/27 01:17:37;;;;;;;18.63;10.43;;;11.40;99.90;;;;;;5068587;28;20486;-61
2022/10/27 01:20:38;;;;;;;17.73;7.97;;;11.40;99.90;;;;;;5072939;28;20517;-63
2022/10/27 01:23:14;;;;;;;27.47;7.73;;;11.50;99.90;;;;;;5075067;28;20463;-62
2022/10/27 01:26:13;;;;;;;13.87;7.50;;;11.50;99.90;;;;;;5068961;28;21205;-61
2022/10/27 01:29:06;;;;;;;15.63;8.93;;;11.50;99.90;;;;;;5070311;28;20470;-61
2022/10/27 01:31:39;;;;;;;20.43;7.50;;;11.50;99.90;;;;;;5046663;28;20705;-62
2022/10/27 01:34:11;;;;;;;17.20;7.53;;;11.40;99.90;;;;;;5078433;28;21036;-61
2022/10/27 01:36:44;;;;;;;23.57;10.90;;;11.40;99.90;;;;;;5067363;28;20478;-61
2022/10/27 01:39:16;;;;;;;56.30;15.43;;;11.40;99.90;;;;;;5074066;28;20486;-61
2022/10/27 01:41:48;;;;;;;44.47;10.23;;;11.30;99.90;;;;;;5074053;28;20470;-61
2022/10/27 01:44:19;;;;;;;67.07;15.13;;;9.40;99.90;;;;;;5074119;28;20478;-61
2022/10/27 01:46:49;;;;;;;16.10;8.53;;;11.20;99.90;;;;;;5070684;28;20928;-61
2022/10/27 01:49:15;;;;;;;20.17;10.37;;;11.30;99.90;;;;;;5075799;28;20479;-61
2022/10/27 01:51:42;;;;;;;14.33;7.80;;;11.30;99.90;;;;;;5073520;28;20856;-60
2022/10/27 01:54:09;;;;;;;12.17;7.20;;;11.30;99.90;;;;;;5076462;28;20474;-61
2022/10/27 01:56:56;;;;;;;12.00;8.10;;;11.40;99.90;;;;;;5073514;28;20498;-60
2022/10/27 02:00:00;;;;;;;27.73;10.40;;;11.40;99.90;;;;;;5064157;28;20477;-60
2022/10/27 02:02:36;;;;;;;31.33;9.60;;;11.40;99.90;;;;;;5067374;28;20474;-60
2022/10/27 02:05:10;;;;;;;18.00;6.87;;;11.40;99.90;;;;;;5076780;28;20493;-61
2022/10/27 02:07:54;;;;;;;23.63;8.10;;;11.40;99.90;;;;;;5068957;28;20825;-61
2022/10/27 02:10:26;;;;;;;37.83;9.40;;;11.40;99.90;;;;;;5074913;28;20571;-61
2022/10/27 02:12:53;;;;;;;35.63;8.17;;;;;;;;;;5065823;28;20466;-60
2022/10/27 02:15:25;;;;;;;45.77;10.80;;;;;;;;;;5076005;28;20469;-60
2022/10/27 02:18:00;;;;;;;24.10;7.23;;;11.40;99.90;;;;;;5053680;28;20488;-61
2022/10/27 02:20:30;;;;;;;26.73;9.33;;;;;;;;;;5084377;28;20466;-60
2022/10/27 02:22:59;;;;;;;25.30;6.83;;;11.40;99.90;;;;;;5067735;28;20489;-61
2022/10/27 02:25:32;;;;;;;30.70;8.47;;;11.40;99.90;;;;;;5086913;28;21211;-60
2022/10/27 02:28:05;;;;;;;27.90;9.60;;;11.40;99.90;;;;;;5071700;28;20817;-61
2022/10/27 02:30:34;;;;;;;36.07;8.23;;;11.40;99.90;;;;;;5074077;28;20894;-60
2022/10/27 02:33:02;;;;;;;33.97;9.30;;;11.40;99.90;;;;;;5073889;28;20483;-61
2022/10/27 02:35:29;;;;;;;27.03;8.93;;;11.40;99.90;;;;;;5072617;28;20986;-61
2022/10/27 02:37:59;;;;;;;34.87;10.00;;;11.40;99.90;;;;;;5070057;28;20809;-61
2022/10/27 02:40:26;;;;;;;30.17;7.77;;;;;;;;;;5078862;28;20461;-61
2022/10/27 02:42:53;;;;;;;41.23;8.07;;;;;;;;;;5069709;28;20841;-61
2022/10/27 02:45:20;;;;;;;47.47;11.63;;;11.40;99.90;;;;;;5075990;28;20498;-61
2022/10/27 02:47:47;;;;;;;36.43;8.90;;;11.40;99.90;;;;;;5061902;28;21264;-62
2022/10/27 02:50:15;;;;;;;25.40;9.00;;;11.40;99.90;;;;;;5084768;28;20487;-61
2022/10/27 02:52:42;;;;;;;26.23;9.03;;;11.30;99.90;;;;;;5077089;28;20486;-61
2022/10/27 02:55:10;;;;;;;34.57;11.40;;;11.30;99.90;;;;;;5075438;28;20747;-61
2022/10/27 02:57:37;;;;;;;30.87;6.23;;;;;;;;;;5068373;28;20563;-61
2022/10/27 03:00:04;;;;;;;21.90;8.40;;;;;;;;;;5071620;28;20582;-61
2022/10/27 03:02:31;;;;;;;35.93;9.07;;;11.10;99.90;;;;;;5081010;28;20503;-60
2022/10/27 03:04:58;;;;;;;40.13;8.90;;;11.00;99.90;;;;;;5082065;28;20868;-61
2022/10/27 03:07:26;;;;;;;33.33;8.20;;;10.80;99.90;;;;;;5066333;28;20487;-61
2022/10/27 03:09:53;;;;;;;28.67;9.37;;;;;;;;;;5071369;28;20735;-61
2022/10/27 03:12:23;;;;;;;38.70;10.83;;;10.40;99.90;;;;;;5051556;28;20482;-62
2022/10/27 03:14:50;;;;;;;26.67;8.93;;;;;;;;;;5059797;28;20481;-61
2022/10/27 03:17:16;;;;;;;42.50;11.10;;;10.20;99.90;;;;;;5068077;28;20490;-61
2022/10/27 03:19:43;;;;;;;34.47;9.03;;;10.20;99.90;;;;;;5071255;28;20497;-61
2022/10/27 03:22:10;;;;;;;45.50;13.60;;;;;;;;;;5069807;28;20486;-61
2022/10/27 03:24:38;;;;;;;28.87;8.60;;;10.10;99.90;;;;;;5067871;28;20490;-61
2022/10/27 03:27:05;;;;;;;28.23;8.27;;;10.00;99.90;;;;;;5065286;28;20790;-61
2022/10/27 03:29:32;;;;;;;26.23;9.90;;;;;;;;;;5070200;28;20502;-61
2022/10/27 03:31:58;;;;;;;24.37;8.13;;;10.20;99.90;;;;;;5071645;28;20478;-61
2022/10/27 03:34:25;;;;;;;27.47;7.80;;;10.30;99.90;;;;;;5073533;28;20880;-61
2022/10/27 03:36:52;;;;;;;34.30;9.87;;;10.40;99.90;;;;;;5067460;28;20487;-61
2022/10/27 03:39:18;;;;;;;55.57;13.30;;;10.50;99.90;;;;;;5073554;28;20991;-61
2022/10/27 03:41:47;;;;;;;35.90;8.80;;;;;;;;;;5073122;28;20858;-61
2022/10/27 03:44:13;;;;;;;38.60;11.53;;;10.50;99.90;;;;;;5068015;28;20486;-61
2022/10/27 03:46:40;;;;;;;37.23;11.67;;;10.60;99.90;;;;;;5077733;28;20493;-61
2022/10/27 03:49:07;;;;;;;52.70;12.53;;;10.60;99.90;;;;;;5072589;28;20834;-60
2022/10/27 03:51:34;;;;;;;22.83;7.97;;;10.50;99.90;;;;;;5075104;28;20781;-61
2022/10/27 03:54:01;;;;;;;25.83;6.63;;;;;;;;;;5075928;28;20594;-60
2022/10/27 03:56:28;;;;;;;62.20;12.30;;;;;;;;;;5075360;28;20478;-61
2022/10/27 03:58:56;;;;;;;52.33;10.97;;;;;;;;;;5072439;28;20470;-61
2022/10/27 04:01:23;;;;;;;57.73;12.60;;;;;;;;;;5072945;28;20758;-61
2022/10/27 04:03:50;;;;;;;39.13;7.73;;;10.50;99.90;;;;;;5072417;28;20999;-61
2022/10/27 04:06:17;;;;;;;67.27;14.83;;;10.40;99.90;;;;;;5072322;28;20838;-61
2022/10/27 04:08:43;;;;;;;32.07;8.90;;;10.20;99.90;;;;;;5071090;28;20486;-61
2022/10/27 04:11:10;;;;;;;62.27;13.80;;;10.00;99.90;;;;;;5072883;28;20494;-60
2022/10/27 04:13:37;;;;;;;26.93;7.97;;;9.70;99.90;;;;;;5075342;28;20846;-61
2022/10/27 04:16:05;;;;;;;36.10;9.50;;;9.70;99.90;;;;;;5076016;28;20486;-60
2022/10/27 04:18:32;;;;;;;26.50;6.67;;;9.50;99.90;;;;;;5073573;28;20891;-61
2022/10/27 04:21:02;;;;;;;17.77;6.23;;;9.50;99.90;;;;;;5078818;28;20527;-61
2022/10/27 04:23:29;;;;;;;45.47;9.40;;;9.40;99.90;;;;;;5080004;28;20482;-61
2022/10/27 04:25:56;;;;;;;27.73;6.70;;;;;;;;;;5078701;28;20623;-60
2022/10/27 04:28:23;;;;;;;49.33;10.70;;;;;;;;;;5074694;28;21025;-61
2022/10/27 04:30:50;;;;;;;36.90;8.50;;;;;;;;;;5075995;28;20486;-61
2022/10/27 04:33:19;;;;;;;49.53;10.70;;;;;;;;;;5076576;28;20497;-62
2022/10/27 04:35:46;;;;;;;46.13;10.43;;;9.40;99.90;;;;;;5074836;28;20478;-62
2022/10/27 04:38:13;;;;;;;53.90;12.70;;;;;;;;;;5079834;28;20493;-61
2022/10/27 04:40:39;;;;;;;31.30;7.30;;;9.40;99.90;;;;;;5077437;28;20490;-62
2022/10/27 04:43:06;;;;;;;56.90;10.57;;;;;;;;;;5075583;28;20482;-61
2022/10/27 04:45:34;;;;;;;63.13;11.23;;;;;;;;;;5075804;28;20912;-61
2022/10/27 04:48:00;;;;;;;31.53;8.17;;;9.50;99.90;;;;;;5073566;28;20553;-61
2022/10/27 04:50:28;;;;;;;38.40;8.07;;;9.60;99.90;;;;;;5076590;28;20490;-61
2022/10/27 04:52:57;;;;;;;29.97;8.43;;;9.90;99.90;;;;;;5075946;28;20478;-60
2022/10/27 04:55:24;;;;;;;51.03;10.90;;;9.90;99.90;;;;;;5075595;28;20470;-62
2022/10/27 04:57:51;;;;;;;31.20;8.90;;;10.00;99.90;;;;;;5072448;28;20479;-62
2022/10/27 05:00:18;;;;;;;63.80;11.73;;;;;;;;;;5076730;28;20478;-62
2022/10/27 05:02:45;;;;;;;37.77;7.87;;;;;;;;;;5076004;28;20489;-61
2022/10/27 05:05:12;;;;;;;76.93;15.23;;;10.30;99.90;;;;;;5068843;28;20490;-61
2022/10/27 05:07:40;;;;;;;41.50;10.20;;;10.30;99.90;;;;;;5070811;28;20479;-60
2022/10/27 05:10:07;;;;;;;60.23;12.63;;;10.30;99.90;;;;;;5076001;28;20485;-60
2022/10/27 05:12:34;;;;;;;31.27;7.53;;;;;;;;;;5076565;28;20513;-62
2022/10/27 05:15:01;;;;;;;29.47;7.00;;;10.30;99.90;;;;;;5077335;28;20473;-62
2022/10/27 05:17:28;;;;;;;20.53;6.63;;;10.40;99.90;;;;;;5072484;28;21149;-61
2022/10/27 05:19:55;;;;;;;17.23;6.47;;;10.40;99.90;;;;;;5076334;28;20490;-61
2022/10/27 05:22:21;;;;;;;33.73;8.90;;;10.40;99.90;;;;;;5074989;28;20498;-62
2022/10/27 05:24:49;;;;;;;20.53;7.07;;;10.40;99.90;;;;;;5076152;28;21002;-62
2022/10/27 05:27:16;;;;;;;41.90;13.20;;;;;;;;;;5069141;28;20485;-61
2022/10/27 05:29:43;;;;;;;28.00;7.20;;;;;;;;;;5074721;28;20482;-62
2022/10/27 05:32:10;;;;;;;37.23;12.80;;;10.40;99.90;;;;;;5075185;28;20717;-61
2022/10/27 05:34:37;;;;;;;19.83;8.70;;;10.40;99.90;;;;;;5075242;28;20482;-62
2022/10/27 05:37:03;;;;;;;16.93;8.17;;;10.30;99.90;;;;;;5073507;28;20490;-61
2022/10/27 05:39:30;;;;;;;17.03;7.87;;;10.30;99.90;;;;;;5079513;28;20497;-62
2022/10/27 05:41:58;;;;;;;12.70;7.00;;;10.20;99.90;;;;;;5079553;28;20483;-62
2022/10/27 05:44:25;;;;;;;21.40;9.80;;;10.20;99.90;;;;;;5070088;28;20489;-62
2022/10/27 05:46:52;;;;;;;20.10;9.27;;;10.20;99.90;;;;;;5079526;28;20895;-60
2022/10/27 05:49:18;;;;;;;25.77;11.23;;;10.10;99.90;;;;;;5074908;28;20666;-60
2022/10/27 05:51:45;;;;;;;12.00;6.90;;;10.10;99.90;;;;;;5075315;28;20502;-61
2022/10/27 05:54:12;;;;;;;23.83;10.17;;;10.20;99.90;;;;;;5073443;28;20470;-63
2022/10/27 05:56:38;;;;;;;28.77;11.50;;;9.30;99.90;;;;;;5070232;28;20479;-63
2022/10/27 05:59:06;;;;;;;15.33;7.47;;;9.90;99.90;;;;;;5070800;28;20474;-62
2022/10/27 06:01:33;;;;;;;15.77;7.70;;;9.80;99.90;;;;;;5074909;28;20475;-61
2022/10/27 06:04:00;;;;;;;17.67;8.50;;;9.70;99.90;;;;;;5072951;28;20975;-62
2022/10/27 06:06:26;;;;;;;36.97;13.17;;;9.60;99.90;;;;;;5066410;28;20504;-62
2022/10/27 06:08:53;;;;;;;21.47;6.90;;;9.60;99.90;;;;;;5081745;28;20482;-61
2022/10/27 06:11:20;;;;;;;37.40;10.70;;;9.70;99.90;;;;;;5075043;28;20474;-62
2022/10/27 06:13:49;;;;;;;26.53;8.87;;;9.80;99.90;;;;;;5075855;28;20485;-62
2022/10/27 06:16:17;;;;;;;45.07;12.20;;;9.80;99.90;;;;;;5062295;28;20533;-62
2022/10/27 06:18:44;;;;;;;30.43;8.90;;;;;;;;;;5071277;28;20509;-61
2022/10/27 06:21:11;;;;;;;20.40;7.40;;;10.00;99.90;;;;;;5071215;28;20853;-62
2022/10/27 06:23:40;;;;;;;22.30;9.03;;;10.00;99.90;;;;;;5082359;28;20496;-62
2022/10/27 06:26:07;;;;;;;26.93;8.87;;;10.00;99.90;;;;;;5083103;28;20485;-62
2022/10/27 06:28:34;;;;;;;21.87;8.63;;;;;;;;;;5075325;28;20490;-61
2022/10/27 06:31:00;;;;;;;24.37;8.20;;;10.10;99.90;;;;;;5078005;28;20486;-61
2022/10/27 06:33:28;;;;;;;23.83;9.63;;;10.20;99.90;;;;;;5077988;28;21045;-61
2022/10/27 06:35:55;;;;;;;36.40;7.83;;;10.20;99.90;;;;;;5071508;28;20486;-62
2022/10/27 06:38:22;;;;;;;33.23;10.43;;;10.70;99.90;;;;;;5071954;28;20887;-62
2022/10/27 06:40:49;;;;;;;28.83;9.70;;;;;;;;;;5076769;28;20478;-62
2022/10/27 06:43:16;;;;;;;47.93;14.57;;;;;;;;;;5072239;28;20497;-62
2022/10/27 06:45:46;;;;;;;44.17;10.53;;;10.30;99.90;;;;;;5073793;28;20934;-61
2022/10/27 06:48:14;;;;;;;43.13;12.30;;;10.30;99.90;;;;;;5064991;28;20471;-62
2022/10/27 06:50:42;;;;;;;50.60;12.40;;;10.40;99.90;;;;;;5074164;28;20668;-62
2022/10/27 06:53:09;;;;;;;57.10;15.90;;;10.40;99.90;;;;;;5073845;28;20482;-61
2022/10/27 06:55:36;;;;;;;40.33;11.17;;;;;;;;;;5071414;28;20642;-61
2022/10/27 06:58:02;;;;;;;25.57;8.03;;;10.50;99.90;;;;;;5070111;28;20806;-62
2022/10/27 07:00:30;;;;;;;29.50;10.27;;;10.50;99.90;;;;;;5072300;28;20473;-60
2022/10/27 07:02:56;;;;;;;37.70;8.40;;;10.60;99.90;;;;;;5073343;28;21275;-62
2022/10/27 07:05:23;;;;;;;27.13;7.70;;;;;;;;;;5067905;28;20481;-61
2022/10/27 07:07:53;;;;;;;20.53;7.13;;;;;;;;;;5080828;28;20481;-61
2022/10/27 07:10:21;;;;;;;32.87;10.60;;;11.80;99.90;;;;;;5069110;28;20478;-61
2022/10/27 07:12:52;;;;;;;20.73;6.57;;;12.90;99.90;;;;;;5074029;28;20486;-62
2022/10/27 07:15:19;;;;;;;32.63;11.83;;;14.10;99.90;;;;;;5074074;28;20970;-61
2022/10/27 07:17:45;;;;;;;25.73;11.20;;;14.70;99.90;;;;;;5064766;28;20489;-61
2022/10/27 07:20:19;;;;;;;32.00;11.10;;;16.30;99.70;;;;;;5059028;28;20592;-61
2022/10/27 07:22:46;;;;;;;28.83;9.50;;;17.40;98.70;;;;;;5079334;28;20823;-62
2022/10/27 07:25:14;;;;;;;34.80;11.00;;;18.30;97.50;;;;;;5066035;28;20485;-62
2022/10/27 07:27:41;;;;;;;28.03;9.33;;;;;;;;;;5076979;28;20485;-61
2022/10/27 07:30:09;;;;;;;27.40;9.77;;;;;;;;;;5074904;28;20471;-61
2022/10/27 07:32:36;;;;;;;17.23;6.10;;;;;;;;;;5073715;28;20482;-62
2022/10/27 07:35:03;;;;;;;21.63;6.90;;;;;;;;;;5077685;28;20471;-62
2022/10/27 07:37:30;;;;;;;19.53;6.47;;;;;;;;;;5071284;28;20991;-62
2022/10/27 07:39:57;;;;;;;15.07;5.60;;;22.50;92.20;;;;;;5079406;28;20482;-62
2022/10/27 07:42:25;;;;;;;21.70;6.87;;;23.10;91.80;;;;;;5079524;28;21060;-62
2022/10/27 07:44:52;;;;;;;22.03;6.00;;;;;;;;;;5063974;28;20490;-63
2022/10/27 07:47:19;;;;;;;23.63;8.63;;;24.00;91.10;;;;;;5063301;28;20482;-62
2022/10/27 07:49:45;;;;;;;20.67;5.63;;;24.60;90.30;;;;;;5069787;28;20493;-63
2022/10/27 07:52:12;;;;;;;20.70;8.83;;;25.00;89.80;;;;;;5078283;28;20476;-63
2022/10/27 07:54:39;;;;;;;21.70;7.60;;;25.40;88.40;;;;;;5081900;28;20474;-62
2022/10/27 07:57:05;;;;;;;31.73;8.70;;;25.80;87.60;;;;;;5081883;28;21031;-62
2022/10/27 07:59:33;;;;;;;18.57;6.60;;;26.10;86.20;;;;;;5079293;28;20501;-62
2022/10/27 08:02:00;;;;;;;16.27;5.80;;;26.30;85.20;;;;;;5079684;28;20962;-63
2022/10/27 08:04:27;;;;;;;23.53;8.47;;;26.70;85.30;;;;;;5078759;28;20486;-62
2022/10/27 08:06:54;;;;;;;32.13;9.40;;;;;;;;;;5071757;28;21042;-63
2022/10/27 08:09:21;;;;;;;33.47;8.83;;;27.10;84.20;;;;;;5075465;28;20771;-63
2022/10/27 08:11:48;;;;;;;33.37;10.50;;;27.10;82.60;;;;;;5077608;28;20486;-62
2022/10/27 08:14:14;;;;;;;53.47;15.07;;;27.10;83.00;;;;;;5075001;28;20485;-62
2022/10/27 08:16:42;;;;;;;104.00;15.90;;;27.10;82.90;;;;;;5080370;28;20498;-62
2022/10/27 08:19:09;;;;;;;64.93;13.60;;;27.00;83.20;;;;;;5077113;28;20472;-62
2022/10/27 08:21:36;;;;;;;15.67;5.93;;;26.80;83.70;;;;;;5063613;28;20493;-64
2022/10/27 08:24:03;;;;;;;41.57;9.43;;;;;;;;;;5089694;28;24294;-63
2022/10/27 08:26:31;;;;;;;21.37;9.00;;;26.40;84.90;;;;;;5073517;28;20463;-63
2022/10/27 08:28:57;;;;;;;16.07;5.20;;;26.20;85.50;;;;;;5078274;28;20476;-63
2022/10/27 08:31:24;;;;;;;11.87;5.20;;;25.90;86.80;;;;;;5077126;28;20659;-62
2022/10/27 08:33:52;;;;;;;14.13;5.17;;;25.50;87.10;;;;;;5072417;28;20533;-62
2022/10/27 08:36:19;;;;;;;16.50;7.07;;;25.20;87.20;;;;;;5077234;28;20489;-62
2022/10/27 08:38:45;;;;;;;14.37;4.57;;;24.90;88.80;;;;;;5076367;28;20485;-63
2022/10/27 08:41:23;;;;;;;23.20;7.10;;;24.60;89.50;;;;;;5075019;28;20953;-63
2022/10/27 08:44:19;;;;;;;14.50;5.73;;;24.30;90.20;;;;;;5067013;28;20632;-63
2022/10/27 08:46:49;;;;;;;11.23;5.47;;;;;;;;;;5064801;28;20486;-63
2022/10/27 08:49:28;;;;;;;20.23;7.30;;;23.80;91.10;;;;;;5076596;28;20470;-63
2022/10/27 08:51:59;;;;;;;20.23;6.30;;;23.60;91.30;;;;;;5073090;28;20488;-63
2022/10/27 08:54:27;;;;;;;23.37;5.97;;;;;;;;;;5076011;28;20461;-62
2022/10/27 08:56:57;;;;;;;14.43;5.60;;;23.20;92.60;;;;;;5077163;28;20465;-62
2022/10/27 08:59:25;;;;;;;27.77;8.90;;;23.10;93.00;;;;;;5079732;28;20854;-62
2022/10/27 09:01:58;;;;;;;32.90;6.33;;;23.00;93.30;;;;;;5078188;28;20852;-63
2022/10/27 09:04:53;;;;;;;16.57;6.13;;;22.90;93.60;;;;;;5079224;28;20489;-64
2022/10/27 09:07:26;;;;;;;24.13;8.13;;;22.90;94.10;;;;;;5070929;28;20916;-63
2022/10/27 09:09:55;;;;;;;18.00;6.33;;;;;;;;;;5076076;28;20479;-63
2022/10/27 09:12:27;;;;;;;25.03;8.23;;;;;;;;;;5076112;28;21042;-62
2022/10/27 09:15:14;;;;;;;21.17;6.77;;;22.80;95.10;;;;;;5076387;28;20445;-62
2022/10/27 09:17:45;;;;;;;30.53;7.00;;;22.80;95.30;;;;;;5072729;28;21207;-61
2022/10/27 09:20:19;;;;;;;29.10;8.57;;;22.80;95.40;;;;;;5075337;28;20445;-61
2022/10/27 09:22:49;;;;;;;32.50;9.27;;;;;;;;;;5074660;28;20473;-62
2022/10/27 09:25:19;;;;;;;84.83;14.40;;;22.80;95.60;;;;;;5076429;28;20471;-62
2022/10/27 09:27:51;;;;;;;107.27;12.60;;;22.80;95.80;;;;;;5073889;28;20470;-62
2022/10/27 09:30:18;;;;;;;108.67;14.63;;;22.80;96.30;;;;;;5075664;28;20471;-63
2022/10/27 09:32:48;;;;;;;50.20;11.90;;;22.80;96.70;;;;;;5076835;28;20477;-63
2022/10/27 09:35:20;;;;;;;49.20;12.37;;;22.80;96.60;;;;;;5067052;28;20456;-61
2022/10/27 09:37:47;;;;;;;26.33;8.30;;;;;;;;;;5065512;28;21012;-61
2022/10/27 09:40:17;;;;;;;44.10;13.47;;;23.00;97.10;;;;;;5075912;28;20472;-62
2022/10/27 09:42:44;;;;;;;23.70;8.17;;;23.10;97.20;;;;;;5075104;28;20478;-61
2022/10/27 09:45:17;;;;;;;28.03;12.70;;;23.10;97.30;;;;;;5082746;28;20482;-62
2022/10/27 09:47:47;;;;;;;15.50;9.40;;;23.20;97.40;;;;;;5074919;28;20470;-63
2022/10/27 09:50:20;;;;;;;17.33;6.97;;;23.30;97.30;;;;;;5076760;28;20474;-64
2022/10/27 09:52:47;;;;;;;16.13;7.07;;;22.50;96.80;;;;;;5071547;28;20446;-63
2022/10/27 09:55:15;;;;;;;19.60;10.33;;;23.50;97.70;;;;;;5075519;28;20445;-63
2022/10/27 09:57:43;;;;;;;13.10;5.80;;;23.60;97.40;;;;;;5073840;28;20485;-63
2022/10/27 10:00:24;;;;;;;26.77;9.23;;;23.70;97.00;;;;;;5078081;28;20477;-62
2022/10/27 10:03:00;;;;;;;16.07;5.03;;;23.90;97.30;;;;;;5062404;28;20490;-63
2022/10/27 10:05:31;;;;;;;13.63;5.87;;;24.00;97.00;;;;;;5071659;28;20445;-62
2022/10/27 10:08:12;;;;;;;8.33;5.57;;;24.20;97.60;;;;;;5071749;28;20911;-64
2022/10/27 10:10:40;;;;;;;15.43;6.70;;;24.40;98.10;;;;;;5071390;28;20540;-63
2022/10/27 10:13:12;;;;;;;12.73;7.80;;;24.50;97.50;;;;;;5074308;28;20482;-64
2022/10/27 10:15:42;;;;;;;12.53;5.50;;;24.70;98.10;;;;;;5075876;28;20469;-63
2022/10/27 10:18:25;;;;;;;16.00;6.50;;;24.90;97.70;;;;;;5076661;28;21098;-63
2022/10/27 10:20:59;;;;;;;27.13;9.63;;;24.70;95.70;;;;;;5062945;28;21010;-64
2022/10/27 10:23:29;;;;;;;9.37;5.67;;;24.40;95.00;;;;;;5077487;28;20470;-64
2022/10/27 10:25:57;;;;;;;24.00;6.83;;;24.20;96.30;;;;;;5063378;28;20498;-64
2022/10/27 10:28:32;;;;;;;10.87;5.57;;;24.10;96.30;;;;;;5079472;28;20448;-63
2022/10/27 10:31:00;;;;;;;9.40;4.50;;;;;;;;;;5069966;28;20558;-64
2022/10/27 10:33:31;;;;;;;12.47;5.30;;;24.30;96.40;;;;;;5077626;28;20478;-63
2022/10/27 10:36:01;;;;;;;7.97;4.90;;;24.20;96.10;;;;;;5073439;28;20453;-63
2022/10/27 10:38:30;;;;;;;13.77;5.33;;;;;;;;;;5068037;28;20514;-63
2022/10/27 10:41:01;;;;;;;10.93;5.17;;;23.70;95.90;;;;;;5069460;28;20486;-63
2022/10/27 10:43:28;;;;;;;13.73;6.40;;;23.60;96.10;;;;;;5070887;28;20826;-62
2022/10/27 10:45:55;;;;;;;22.47;6.87;;;23.60;96.10;;;;;;5073926;28;20479;-62
2022/10/27 10:48:38;;;;;;;19.03;9.20;;;23.40;96.00;;;;;;5070563;28;20477;-64
2022/10/27 10:51:08;;;;;;;25.47;8.87;;;23.40;96.80;;;;;;5063982;28;20532;-62
2022/10/27 10:53:39;;;;;;;15.57;6.40;;;23.50;96.40;;;;;;5067829;28;20493;-63
2022/10/27 10:56:07;;;;;;;18.00;6.97;;;;;;;;;;5069869;28;20818;-63
2022/10/27 10:58:36;;;;;;;22.20;7.10;;;23.40;96.60;;;;;;5070154;28;20486;-63
2022/10/27 11:01:05;;;;;;;14.70;5.60;;;23.20;95.40;;;;;;5071708;28;20516;-64
2022/10/27 11:03:34;;;;;;;17.63;8.00;;;23.10;96.30;;;;;;5074187;28;20720;-63
2022/10/27 11:06:03;;;;;;;12.33;5.73;;;23.00;96.40;;;;;;5073559;28;20482;-64
2022/10/27 11:08:37;;;;;;;13.90;6.37;;;23.10;96.80;;;;;;5072855;28;20703;-64
2022/10/27 11:11:07;;;;;;;26.90;5.90;;;26.50;97.60;;;;;;5071621;28;20449;-64
2022/10/27 11:13:43;;;;;;;11.97;6.37;;;22.20;97.00;;;;;;5071463;28;20474;-63
2022/10/27 11:16:12;;;;;;;24.07;6.80;;;23.70;95.80;;;;;;5061977;28;20478;-65
2022/10/27 11:18:46;;;;;;;17.87;5.83;;;23.80;95.60;;;;;;5070299;28;20478;-63
2022/10/27 11:21:19;;;;;;;8.03;5.07;;;23.90;95.60;;;;;;5067730;28;20493;-64
2022/10/27 11:23:49;;;;;;;13.27;4.30;;;24.00;94.80;;;;;;5072925;28;20453;-64
2022/10/27 11:26:19;;;;;;;6.67;4.50;;;24.10;94.80;;;;;;5073593;28;20818;-64
2022/10/27 11:28:54;;;;;;;11.00;4.93;;;23.90;95.70;;;;;;5073330;28;20544;-64
2022/10/27 11:31:27;;;;;;;14.30;4.90;;;23.90;96.10;;;;;;5073533;28;20486;-64
2022/10/27 11:34:01;;;;;;;4.20;3.80;;;23.80;95.90;;;;;;5067027;28;20461;-64
2022/10/27 11:36:37;;;;;;;8.23;4.50;;;23.70;95.30;;;;;;5062014;28;20497;-65
2022/10/27 11:39:06;;;;;;;8.03;4.30;;;23.70;95.80;;;;;;5058679;28;20444;-65
2022/10/27 11:41:40;;;;;;;29.90;5.50;;;23.60;95.90;;;;;;5078979;28;20453;-64
2022/10/27 11:44:15;;;;;;;6.43;3.90;;;23.60;95.30;;;;;;5064848;28;20473;-65
2022/10/27 11:46:47;;;;;;;11.10;5.43;;;23.80;96.30;;;;;;5071842;28;20510;-64
2022/10/27 11:49:19;;;;;;;13.93;4.50;;;23.90;95.50;;;;;;5054939;28;20459;-65
2022/10/27 11:51:51;;;;;;;11.33;3.90;;;23.90;95.50;;;;;;5071878;28;20461;-64
2022/10/27 11:54:19;;;;;;;7.80;3.80;;;24.00;94.50;;;;;;5058615;28;20530;-64
2022/10/27 11:56:58;;;;;;;7.87;4.50;;;24.10;96.20;;;;;;5063711;28;20724;-64
2022/10/27 11:59:37;;;;;;;16.00;4.30;;;24.00;94.60;;;;;;5060042;28;20551;-64
2022/10/27 12:02:17;;;;;;;10.23;3.87;;;23.90;94.80;;;;;;5075166;28;20477;-64
2022/10/27 12:04:51;;;;;;;14.90;4.80;;;23.80;95.00;;;;;;5071515;28;20506;-64
2022/10/27 12:07:32;;;;;;;17.20;4.80;;;23.80;95.20;;;;;;5068983;28;20478;-64
2022/10/27 12:10:11;;;;;;;16.20;4.00;;;23.90;95.50;;;;;;5070710;28;21163;-64
2022/10/27 12:12:41;;;;;;;6.27;3.53;;;24.00;94.90;;;;;;5073534;28;20649;-64
2022/10/27 12:15:13;;;;;;;17.23;4.57;;;24.20;94.40;;;;;;5072192;28;20700;-64
2022/10/27 12:17:45;;;;;;;8.73;3.93;;;24.30;94.70;;;;;;5075258;28;20448;-64
2022/10/27 12:20:17;;;;;;;11.23;4.23;;;24.50;95.30;;;;;;5068134;28;20446;-65
2022/10/27 12:22:51;;;;;;;8.93;3.63;;;24.40;94.70;;;;;;5088987;28;20478;-64
2022/10/27 12:25:26;;;;;;;10.80;3.87;;;24.40;94.50;;;;;;5076247;28;20472;-64
2022/10/27 12:27:56;;;;;;;17.63;4.93;;;24.30;95.30;;;;;;5071139;28;20470;-63
2022/10/27 12:30:24;;;;;;;3.77;2.90;;;24.30;94.30;;;;;;5069985;28;20457;-63
2022/10/27 12:32:57;;;;;;;14.90;3.87;;;24.30;93.70;;;;;;5071769;28;20814;-64
2022/10/27 12:35:28;;;;;;;6.50;2.77;;;;;;;;;;5067975;28;20464;-64
2022/10/27 12:38:03;;;;;;;4.97;2.97;;;24.60;95.10;;;;;;5063337;28;20475;-64
2022/10/27 12:40:39;;;;;;;5.00;3.23;;;24.50;94.20;;;;;;5077299;28;20471;-64
2022/10/27 12:43:13;;;;;;;6.97;3.80;;;24.60;95.90;;;;;;5076202;28;20660;-64
2022/10/27 12:45:52;;;;;;;14.57;3.83;;;24.80;94.50;;;;;;5077577;28;20452;-64
2022/10/27 12:48:28;;;;;;;7.07;3.60;;;24.80;94.30;;;;;;5075764;28;20478;-64
2022/10/27 12:51:06;;;;;;;13.07;4.13;;;24.90;94.30;;;;;;5078647;28;20460;-64
2022/10/27 12:53:43;;;;;;;9.70;4.97;;;24.70;93.30;;;;;;5071533;28;20469;-64
2022/10/27 12:56:33;;;;;;;13.93;4.10;;;24.70;93.50;;;;;;5087558;28;20709;-64
2022/10/27 12:59:11;;;;;;;7.50;3.10;;;24.80;93.60;;;;;;5076522;28;20477;-64
2022/10/27 13:01:48;;;;;;;4.63;3.03;;;24.70;93.40;;;;;;5075815;28;20976;-64
2022/10/27 13:04:51;;;;;;;8.23;3.77;;;24.80;94.40;;;;;;5068060;28;20477;-63
2022/10/27 13:07:45;;;;;;;5.80;3.30;;;24.60;93.30;;;;;;5075693;28;20473;-64